sensor_id;sensor_type;location;lat;lon;timestamp;temperature;humidity
48666;DHT22;34452;50.796;4.994;2023-03-31T00:00:26;11.70;99.90
48666;DHT22;34452;50.796;4.994;2023-03-31T00:02:51;11.70;99.90
48666;DHT22;34452;50.796;4.994;2023-03-31T00:05:19;11.70;99.90
48666;DHT22;34452;50.796;4.994;2023-03-31T00:07:46;11.80;99.90
48666;DHT22;34452;50.796;4.994;2023-03-31T00:10:13;11.80;99.90
48666;DHT22;34452;50.796;4.994;2023-03-31T00:12:39;11.80;99.90
48666;DHT22;34452;50.796;4.994;2023-03-31T00:15:06;11.90;99.90
48666;DHT22;34452;50.796;4.994;2023-03-31T00:17:31;11.90;99.90
48666;DHT22;34452;50.796;4.994;2023-03-31T00:19:59;11.90;99.90
48666;DHT22;34452;50.796;4.994;2023-03-31T00:22:26;12.00;99.90
48666;DHT22;34452;50.796;4.994;2023-03-31T00:24:52;12.00;99.90
48666;DHT22;34452;50.796;4.994;2023-03-31T00:27:18;12.00;99.90
48666;DHT22;34452;50.796;4.994;2023-03-31T00:29:44;12.00;99.90
48666;DHT22;34452;50.796;4.994;2023-03-31T00:32:10;12.00;99.90
48666;DHT22;34452;50.796;4.994;2023-03-31T00:34:36;11.90;99.90
48666;DHT22;34452;50.796;4.994;2023-03-31T00:37:03;12.00;99.90
48666;DHT22;34452;50.796;4.994;2023-03-31T00:39:30;11.90;99.90
48666;DHT22;34452;50.796;4.994;2023-03-31T00:42:01;12.00;99.90
48666;DHT22;34452;50.796;4.994;2023-03-31T00:44:29;11.90;99.90
48666;DHT22;34452;50.796;4.994;2023-03-31T00:47:12;11.90;99.90
48666;DHT22;34452;50.796;4.994;2023-03-31T00:49:43;11.90;99.90
48666;DHT22;34452;50.796;4.994;2023-03-31T00:52:15;11.90;99.90
48666;DHT22;34452;50.796;4.994;2023-03-31T00:54:45;11.90;99.90
48666;DHT22;34452;50.796;4.994;2023-03-31T00:57:12;11.90;99.90
48666;DHT22;34452;50.796;4.994;2023-03-31T00:59:45;12.00;99.90
48666;DHT22;34452;50.796;4.994;2023-03-31T01:02:13;11.90;99.90
48666;DHT22;34452;50.796;4.994;2023-03-31T01:04:45;11.90;99.90
48666;DHT22;34452;50.796;4.994;2023-03-31T01:07:41;11.90;99.90
48666;DHT22;34452;50.796;4.994;2023-03-31T01:10:08;11.80;99.90
48666;DHT22;34452;50.796;4.994;2023-03-31T01:12:38;11.80;99.90
48666;DHT22;34452;50.796;4.994;2023-03-31T01:15:05;11.70;99.90
48666;DHT22;34452;50.796;4.994;2023-03-31T01:17:31;11.70;99.90
48666;DHT22;34452;50.796;4.994;2023-03-31T01:31:54;11.50;99.90
48666;DHT22;34452;50.796;4.994;2023-03-31T01:34:56;11.40;99.90
48666;DHT22;34452;50.796;4.994;2023-03-31T01:42:41;11.30;99.90
48666;DHT22;34452;50.796;4.994;2023-03-31T01:45:15;11.30;99.90
48666;DHT22;34452;50.796;4.994;2023-03-31T01:47:49;11.30;99.90
48666;DHT22;34452;50.796;4.994;2023-03-31T01:53:08;11.20;99.90
48666;DHT22;34452;50.796;4.994;2023-03-31T01:56:09;11.20;99.90
48666;DHT22;34452;50.796;4.994;2023-03-31T01:58:58;11.20;99.90
48666;DHT22;34452;50.796;4.994;2023-03-31T02:01:28;11.20;99.90
48666;DHT22;34452;50.796;4.994;2023-03-31T02:03:59;11.20;99.90
48666;DHT22;34452;50.796;4.994;2023-03-31T02:06:32;11.20;99.90
48666;DHT22;34452;50.796;4.994;2023-03-31T02:09:03;11.20;99.90
48666;DHT22;34452;50.796;4.994;2023-03-31T02:11:31;11.20;99.90
48666;DHT22;34452;50.796;4.994;2023-03-31T02:13:58;11.10;99.90
48666;DHT22;34452;50.796;4.994;2023-03-31T02:16:27;11.20;99.90
48666;DHT22;34452;50.796;4.994;2023-03-31T02:18:57;11.10;99.90
48666;DHT22;34452;50.796;4.994;2023-03-31T02:21:31;11.10;99.90
48666;DHT22;34452;50.796;4.994;2023-03-31T02:23:59;11.10;99.90
48666;DHT22;34452;50.796;4.994;2023-03-31T02:26:30;11.00;99.90
48666;DHT22;34452;50.796;4.994;2023-03-31T02:28:57;11.00;99.90
48666;DHT22;34452;50.796;4.994;2023-03-31T02:33:49;11.00;99.90
48666;DHT22;34452;50.796;4.994;2023-03-31T02:36:15;11.00;99.90
48666;DHT22;34452;50.796;4.994;2023-03-31T02:41:28;10.90;99.90
48666;DHT22;34452;50.796;4.994;2023-03-31T02:43:54;10.90;99.90
48666;DHT22;34452;50.796;4.994;2023-03-31T02:46:20;10.90;99.90
48666;DHT22;34452;50.796;4.994;2023-03-31T02:48:49;10.90;99.90
48666;DHT22;34452;50.796;4.994;2023-03-31T03:09:04;10.90;99.90
48666;DHT22;34452;50.796;4.994;2023-03-31T03:17:12;10.70;99.90
48666;DHT22;34452;50.796;4.994;2023-03-31T03:19:41;10.70;99.90
48666;DHT22;34452;50.796;4.994;2023-03-31T03:22:07;10.60;99.90
48666;DHT22;34452;50.796;4.994;2023-03-31T03:24:33;10.60;99.90
48666;DHT22;34452;50.796;4.994;2023-03-31T03:26:59;10.70;99.90
48666;DHT22;34452;50.796;4.994;2023-03-31T03:29:26;10.70;99.90
48666;DHT22;34452;50.796;4.994;2023-03-31T03:31:52;10.70;99.90
48666;DHT22;34452;50.796;4.994;2023-03-31T03:34:17;10.80;99.90
48666;DHT22;34452;50.796;4.994;2023-03-31T03:36:45;10.80;99.90
48666;DHT22;34452;50.796;4.994;2023-03-31T03:39:11;10.90;99.90
48666;DHT22;34452;50.796;4.994;2023-03-31T03:41:37;10.90;99.90
48666;DHT22;34452;50.796;4.994;2023-03-31T03:44:03;10.90;99.90
48666;DHT22;34452;50.796;4.994;2023-03-31T03:46:29;10.90;99.90
48666;DHT22;34452;50.796;4.994;2023-03-31T03:48:55;10.90;99.90
48666;DHT22;34452;50.796;4.994;2023-03-31T03:51:21;11.00;99.90
48666;DHT22;34452;50.796;4.994;2023-03-31T03:53:47;11.00;99.90
48666;DHT22;34452;50.796;4.994;2023-03-31T03:56:12;11.00;99.90
48666;DHT22;34452;50.796;4.994;2023-03-31T03:58:38;11.00;99.90
48666;DHT22;34452;50.796;4.994;2023-03-31T04:01:04;11.00;99.90
48666;DHT22;34452;50.796;4.994;2023-03-31T04:03:30;11.00;99.90
48666;DHT22;34452;50.796;4.994;2023-03-31T04:05:56;11.00;99.90
48666;DHT22;34452;50.796;4.994;2023-03-31T04:08:22;11.00;99.90
48666;DHT22;34452;50.796;4.994;2023-03-31T04:10:49;10.90;99.90
48666;DHT22;34452;50.796;4.994;2023-03-31T04:13:17;11.00;99.90
48666;DHT22;34452;50.796;4.994;2023-03-31T04:15:43;11.00;99.90
48666;DHT22;34452;50.796;4.994;2023-03-31T04:18:10;11.00;99.90
48666;DHT22;34452;50.796;4.994;2023-03-31T04:20:43;11.00;99.90
48666;DHT22;34452;50.796;4.994;2023-03-31T04:23:09;10.90;99.90
48666;DHT22;34452;50.796;4.994;2023-03-31T04:25:35;11.00;99.90
48666;DHT22;34452;50.796;4.994;2023-03-31T04:28:03;10.90;99.90
48666;DHT22;34452;50.796;4.994;2023-03-31T04:30:31;11.00;99.90
48666;DHT22;34452;50.796;4.994;2023-03-31T04:32:58;11.00;99.90
48666;DHT22;34452;50.796;4.994;2023-03-31T04:35:26;11.10;99.90
48666;DHT22;34452;50.796;4.994;2023-03-31T04:37:53;11.10;99.90
48666;DHT22;34452;50.796;4.994;2023-03-31T04:40:35;11.10;99.90
48666;DHT22;34452;50.796;4.994;2023-03-31T04:43:01;11.20;99.90
48666;DHT22;34452;50.796;4.994;2023-03-31T04:45:26;11.20;99.90
48666;DHT22;34452;50.796;4.994;2023-03-31T04:47:52;11.20;99.90
48666;DHT22;34452;50.796;4.994;2023-03-31T04:50:18;11.20;99.90
48666;DHT22;34452;50.796;4.994;2023-03-31T04:52:43;11.20;99.90
48666;DHT22;34452;50.796;4.994;2023-03-31T04:55:10;11.20;99.90
48666;DHT22;34452;50.796;4.994;2023-03-31T04:57:35;11.20;99.90
48666;DHT22;34452;50.796;4.994;2023-03-31T05:00:03;11.20;99.90
48666;DHT22;34452;50.796;4.994;2023-03-31T05:02:32;11.20;99.90
48666;DHT22;34452;50.796;4.994;2023-03-31T05:04:58;11.20;99.90
48666;DHT22;34452;50.796;4.994;2023-03-31T05:07:23;11.20;99.90
48666;DHT22;34452;50.796;4.994;2023-03-31T05:09:49;11.20;99.90
48666;DHT22;34452;50.796;4.994;2023-03-31T05:12:15;11.30;99.90
48666;DHT22;34452;50.796;4.994;2023-03-31T05:14:41;11.30;99.90
48666;DHT22;34452;50.796;4.994;2023-03-31T05:17:06;11.30;99.90
48666;DHT22;34452;50.796;4.994;2023-03-31T05:19:32;11.30;99.90
48666;DHT22;34452;50.796;4.994;2023-03-31T05:21:58;11.30;99.90
48666;DHT22;34452;50.796;4.994;2023-03-31T05:24:24;11.30;99.90
48666;DHT22;34452;50.796;4.994;2023-03-31T05:26:50;11.30;99.90
48666;DHT22;34452;50.796;4.994;2023-03-31T05:29:18;11.40;99.90
48666;DHT22;34452;50.796;4.994;2023-03-31T05:31:44;11.40;99.90
48666;DHT22;34452;50.796;4.994;2023-03-31T05:34:10;11.40;99.90
48666;DHT22;34452;50.796;4.994;2023-03-31T05:36:35;11.40;99.90
48666;DHT22;34452;50.796;4.994;2023-03-31T05:39:04;11.40;99.90
48666;DHT22;34452;50.796;4.994;2023-03-31T05:41:29;11.40;99.90
48666;DHT22;34452;50.796;4.994;2023-03-31T05:43:55;11.50;99.90
48666;DHT22;34452;50.796;4.994;2023-03-31T05:46:21;11.50;99.90
48666;DHT22;34452;50.796;4.994;2023-03-31T05:48:47;11.50;99.90
48666;DHT22;34452;50.796;4.994;2023-03-31T05:51:13;11.50;99.90
48666;DHT22;34452;50.796;4.994;2023-03-31T05:53:38;11.50;99.90
48666;DHT22;34452;50.796;4.994;2023-03-31T05:56:05;11.50;99.90
48666;DHT22;34452;50.796;4.994;2023-03-31T05:58:34;11.60;99.90
48666;DHT22;34452;50.796;4.994;2023-03-31T06:01:06;11.60;99.90
48666;DHT22;34452;50.796;4.994;2023-03-31T06:03:34;11.60;99.90
48666;DHT22;34452;50.796;4.994;2023-03-31T06:06:01;11.60;99.90
48666;DHT22;34452;50.796;4.994;2023-03-31T06:08:28;11.60;99.90
48666;DHT22;34452;50.796;4.994;2023-03-31T06:10:54;11.60;99.90
48666;DHT22;34452;50.796;4.994;2023-03-31T06:13:20;11.60;99.90
48666;DHT22;34452;50.796;4.994;2023-03-31T06:16:01;11.60;99.90
48666;DHT22;34452;50.796;4.994;2023-03-31T06:18:30;11.60;99.90
48666;DHT22;34452;50.796;4.994;2023-03-31T06:20:56;11.60;99.90
48666;DHT22;34452;50.796;4.994;2023-03-31T06:23:22;11.70;99.90
48666;DHT22;34452;50.796;4.994;2023-03-31T06:25:48;11.70;99.90
48666;DHT22;34452;50.796;4.994;2023-03-31T06:28:14;11.70;99.90
48666;DHT22;34452;50.796;4.994;2023-03-31T06:30:39;11.70;99.90
48666;DHT22;34452;50.796;4.994;2023-03-31T06:33:05;11.70;99.90
48666;DHT22;34452;50.796;4.994;2023-03-31T06:35:31;11.70;99.90
48666;DHT22;34452;50.796;4.994;2023-03-31T06:37:57;11.70;99.90
48666;DHT22;34452;50.796;4.994;2023-03-31T06:40:23;11.80;99.90
48666;DHT22;34452;50.796;4.994;2023-03-31T06:42:49;11.80;99.90
48666;DHT22;34452;50.796;4.994;2023-03-31T06:45:15;11.90;99.90
48666;DHT22;34452;50.796;4.994;2023-03-31T06:47:40;11.90;99.90
48666;DHT22;34452;50.796;4.994;2023-03-31T06:50:07;11.90;99.90
48666;DHT22;34452;50.796;4.994;2023-03-31T06:52:34;12.00;99.90
48666;DHT22;34452;50.796;4.994;2023-03-31T06:55:01;12.00;99.90
48666;DHT22;34452;50.796;4.994;2023-03-31T06:57:27;12.00;99.90
48666;DHT22;34452;50.796;4.994;2023-03-31T06:59:53;12.00;99.90
48666;DHT22;34452;50.796;4.994;2023-03-31T07:02:19;12.00;99.90
48666;DHT22;34452;50.796;4.994;2023-03-31T07:04:45;12.00;99.90
48666;DHT22;34452;50.796;4.994;2023-03-31T07:07:11;12.00;99.90
48666;DHT22;34452;50.796;4.994;2023-03-31T07:09:36;12.00;99.90
48666;DHT22;34452;50.796;4.994;2023-03-31T07:12:03;12.00;99.90
48666;DHT22;34452;50.796;4.994;2023-03-31T07:14:30;12.10;99.90
48666;DHT22;34452;50.796;4.994;2023-03-31T07:16:56;12.10;99.90
48666;DHT22;34452;50.796;4.994;2023-03-31T07:19:22;12.20;99.90
48666;DHT22;34452;50.796;4.994;2023-03-31T07:21:48;12.30;99.90
48666;DHT22;34452;50.796;4.994;2023-03-31T07:24:14;12.30;99.90
48666;DHT22;34452;50.796;4.994;2023-03-31T07:26:40;12.40;99.90
48666;DHT22;34452;50.796;4.994;2023-03-31T07:29:06;12.40;99.90
48666;DHT22;34452;50.796;4.994;2023-03-31T07:31:32;12.60;99.90
48666;DHT22;34452;50.796;4.994;2023-03-31T07:33:57;12.60;99.90
48666;DHT22;34452;50.796;4.994;2023-03-31T07:36:23;12.60;99.90
48666;DHT22;34452;50.796;4.994;2023-03-31T07:38:49;12.60;99.90
48666;DHT22;34452;50.796;4.994;2023-03-31T07:41:18;12.60;99.90
48666;DHT22;34452;50.796;4.994;2023-03-31T07:43:44;12.60;99.90
48666;DHT22;34452;50.796;4.994;2023-03-31T07:48:48;12.60;99.90
48666;DHT22;34452;50.796;4.994;2023-03-31T07:51:17;12.70;99.90
48666;DHT22;34452;50.796;4.994;2023-03-31T07:53:43;12.70;99.90
48666;DHT22;34452;50.796;4.994;2023-03-31T07:56:09;12.70;99.90
48666;DHT22;34452;50.796;4.994;2023-03-31T07:58:35;12.70;99.90
48666;DHT22;34452;50.796;4.994;2023-03-31T08:01:01;12.70;99.90
48666;DHT22;34452;50.796;4.994;2023-03-31T08:03:27;12.60;99.90
48666;DHT22;34452;50.796;4.994;2023-03-31T08:05:53;12.60;99.90
48666;DHT22;34452;50.796;4.994;2023-03-31T08:08:20;12.70;99.90
48666;DHT22;34452;50.796;4.994;2023-03-31T08:10:47;12.60;99.90
48666;DHT22;34452;50.796;4.994;2023-03-31T08:13:12;12.70;99.90
48666;DHT22;34452;50.796;4.994;2023-03-31T08:15:38;12.70;99.90
48666;DHT22;34452;50.796;4.994;2023-03-31T08:18:04;12.70;99.90
48666;DHT22;34452;50.796;4.994;2023-03-31T08:20:31;12.80;99.90
48666;DHT22;34452;50.796;4.994;2023-03-31T08:22:57;12.80;99.90
48666;DHT22;34452;50.796;4.994;2023-03-31T08:25:22;12.80;99.90
48666;DHT22;34452;50.796;4.994;2023-03-31T08:27:49;12.90;99.90
48666;DHT22;34452;50.796;4.994;2023-03-31T08:30:17;12.90;99.90
48666;DHT22;34452;50.796;4.994;2023-03-31T08:32:43;12.90;99.90
48666;DHT22;34452;50.796;4.994;2023-03-31T08:35:09;12.90;99.90
48666;DHT22;34452;50.796;4.994;2023-03-31T08:37:36;12.90;99.90
48666;DHT22;34452;50.796;4.994;2023-03-31T08:40:03;13.00;99.90
48666;DHT22;34452;50.796;4.994;2023-03-31T08:47:56;13.00;99.90
48666;DHT22;34452;50.796;4.994;2023-03-31T08:50:27;13.00;99.90
48666;DHT22;34452;50.796;4.994;2023-03-31T08:53:15;13.00;99.90
48666;DHT22;34452;50.796;4.994;2023-03-31T08:56:03;13.00;99.90
48666;DHT22;34452;50.796;4.994;2023-03-31T08:58:38;13.00;99.90
48666;DHT22;34452;50.796;4.994;2023-03-31T09:01:38;12.90;99.90
48666;DHT22;34452;50.796;4.994;2023-03-31T09:06:35;12.80;99.90
48666;DHT22;34452;50.796;4.994;2023-03-31T09:09:09;12.70;99.90
48666;DHT22;34452;50.796;4.994;2023-03-31T09:11:39;12.60;99.90
48666;DHT22;34452;50.796;4.994;2023-03-31T09:19:59;12.60;99.90
48666;DHT22;34452;50.796;4.994;2023-03-31T09:22:34;12.60;99.90
48666;DHT22;34452;50.796;4.994;2023-03-31T09:25:26;12.60;99.90
48666;DHT22;34452;50.796;4.994;2023-03-31T09:27:54;12.60;99.90
48666;DHT22;34452;50.796;4.994;2023-03-31T09:30:25;12.60;99.90
48666;DHT22;34452;50.796;4.994;2023-03-31T09:32:57;12.60;99.90
48666;DHT22;34452;50.796;4.994;2023-03-31T09:35:29;12.70;99.90
48666;DHT22;34452;50.796;4.994;2023-03-31T09:37:58;12.80;99.90
48666;DHT22;34452;50.796;4.994;2023-03-31T09:40:24;12.90;99.90
48666;DHT22;34452;50.796;4.994;2023-03-31T09:45:55;12.80;99.90
48666;DHT22;34452;50.796;4.994;2023-03-31T09:48:26;12.80;99.90
48666;DHT22;34452;50.796;4.994;2023-03-31T09:51:03;12.70;99.90
48666;DHT22;34452;50.796;4.994;2023-03-31T09:53:48;12.70;99.90
48666;DHT22;34452;50.796;4.994;2023-03-31T09:56:32;12.80;99.90
48666;DHT22;34452;50.796;4.994;2023-03-31T09:59:13;12.80;99.90
48666;DHT22;34452;50.796;4.994;2023-03-31T10:01:39;12.90;99.90
48666;DHT22;34452;50.796;4.994;2023-03-31T10:04:07;12.90;99.90
48666;DHT22;34452;50.796;4.994;2023-03-31T10:06:39;12.90;99.90
48666;DHT22;34452;50.796;4.994;2023-03-31T10:09:09;13.00;99.90
48666;DHT22;34452;50.796;4.994;2023-03-31T10:11:36;13.20;99.90
48666;DHT22;34452;50.796;4.994;2023-03-31T10:14:04;13.30;99.90
48666;DHT22;34452;50.796;4.994;2023-03-31T10:16:32;13.40;99.90
48666;DHT22;34452;50.796;4.994;2023-03-31T10:19:26;13.40;99.90
48666;DHT22;34452;50.796;4.994;2023-03-31T10:25:15;13.60;99.90
48666;DHT22;34452;50.796;4.994;2023-03-31T10:27:44;13.50;99.90
48666;DHT22;34452;50.796;4.994;2023-03-31T10:30:17;13.30;99.90
48666;DHT22;34452;50.796;4.994;2023-03-31T10:32:45;13.10;99.90
48666;DHT22;34452;50.796;4.994;2023-03-31T10:35:32;13.00;99.90
48666;DHT22;34452;50.796;4.994;2023-03-31T10:38:03;13.10;99.90
48666;DHT22;34452;50.796;4.994;2023-03-31T10:40:32;13.10;99.90
48666;DHT22;34452;50.796;4.994;2023-03-31T10:43:14;13.20;99.90
48666;DHT22;34452;50.796;4.994;2023-03-31T10:48:26;13.30;99.90
48666;DHT22;34452;50.796;4.994;2023-03-31T10:50:53;13.30;99.90
48666;DHT22;34452;50.796;4.994;2023-03-31T10:53:19;13.20;99.90
48666;DHT22;34452;50.796;4.994;2023-03-31T11:13:07;13.70;99.90
48666;DHT22;34452;50.796;4.994;2023-03-31T11:19:14;13.80;99.90
48666;DHT22;34452;50.796;4.994;2023-03-31T11:24:42;14.00;99.90
48666;DHT22;34452;50.796;4.994;2023-03-31T11:35:48;14.00;99.90
48666;DHT22;34452;50.796;4.994;2023-03-31T11:41:14;13.90;99.90
48666;DHT22;34452;50.796;4.994;2023-03-31T11:46:45;14.00;99.90
48666;DHT22;34452;50.796;4.994;2023-03-31T11:49:28;14.10;99.90
48666;DHT22;34452;50.796;4.994;2023-03-31T11:52:13;14.10;99.90
48666;DHT22;34452;50.796;4.994;2023-03-31T11:54:49;14.10;99.90
48666;DHT22;34452;50.796;4.994;2023-03-31T11:59:43;14.20;99.90
48666;DHT22;34452;50.796;4.994;2023-03-31T12:02:35;13.90;99.90
48666;DHT22;34452;50.796;4.994;2023-03-31T12:05:04;13.80;99.90
48666;DHT22;34452;50.796;4.994;2023-03-31T12:07:47;13.70;99.90
48666;DHT22;34452;50.796;4.994;2023-03-31T12:10:36;13.80;99.90
48666;DHT22;34452;50.796;4.994;2023-03-31T12:13:30;13.80;99.90
48666;DHT22;34452;50.796;4.994;2023-03-31T12:21:49;14.00;99.90
48666;DHT22;34452;50.796;4.994;2023-03-31T12:24:15;14.20;99.90
48666;DHT22;34452;50.796;4.994;2023-03-31T12:30:02;14.20;99.90
48666;DHT22;34452;50.796;4.994;2023-03-31T12:32:32;14.20;99.90
48666;DHT22;34452;50.796;4.994;2023-03-31T12:35:19;14.20;99.90
48666;DHT22;34452;50.796;4.994;2023-03-31T12:41:09;14.60;99.90
48666;DHT22;34452;50.796;4.994;2023-03-31T12:49:51;13.90;99.90
48666;DHT22;34452;50.796;4.994;2023-03-31T12:55:32;13.50;99.90
48666;DHT22;34452;50.796;4.994;2023-03-31T13:01:05;12.90;99.90
48666;DHT22;34452;50.796;4.994;2023-03-31T13:06:49;12.70;99.90
48666;DHT22;34452;50.796;4.994;2023-03-31T13:14:48;12.40;99.90
48666;DHT22;34452;50.796;4.994;2023-03-31T13:17:34;12.20;99.90
48666;DHT22;34452;50.796;4.994;2023-03-31T13:23:17;11.80;99.90
48666;DHT22;34452;50.796;4.994;2023-03-31T13:25:46;11.60;99.90
48666;DHT22;34452;50.796;4.994;2023-03-31T13:28:17;11.70;99.90
48666;DHT22;34452;50.796;4.994;2023-03-31T13:33:46;11.90;99.90
48666;DHT22;34452;50.796;4.994;2023-03-31T13:38:55;12.10;99.90
48666;DHT22;34452;50.796;4.994;2023-03-31T14:07:46;12.30;99.90
48666;DHT22;34452;50.796;4.994;2023-03-31T14:10:35;12.40;99.90
48666;DHT22;34452;50.796;4.994;2023-03-31T14:13:23;12.40;99.90
48666;DHT22;34452;50.796;4.994;2023-03-31T14:15:51;12.50;99.90
48666;DHT22;34452;50.796;4.994;2023-03-31T14:18:24;12.60;99.90
48666;DHT22;34452;50.796;4.994;2023-03-31T14:21:12;12.60;99.90
48666;DHT22;34452;50.796;4.994;2023-03-31T14:23:46;12.60;99.90
48666;DHT22;34452;50.796;4.994;2023-03-31T14:37:48;12.40;99.90
48666;DHT22;34452;50.796;4.994;2023-03-31T14:40:16;12.50;99.90
48666;DHT22;34452;50.796;4.994;2023-03-31T14:42:42;12.50;99.90
48666;DHT22;34452;50.796;4.994;2023-03-31T14:45:29;12.60;99.90
48666;DHT22;34452;50.796;4.994;2023-03-31T14:48:14;12.60;99.90
48666;DHT22;34452;50.796;4.994;2023-03-31T14:50:43;12.60;99.90
48666;DHT22;34452;50.796;4.994;2023-03-31T14:53:28;12.70;99.90
48666;DHT22;34452;50.796;4.994;2023-03-31T14:56:01;12.70;99.90
48666;DHT22;34452;50.796;4.994;2023-03-31T14:58:31;12.70;99.90
48666;DHT22;34452;50.796;4.994;2023-03-31T15:01:00;12.60;99.90
48666;DHT22;34452;50.796;4.994;2023-03-31T15:03:27;12.70;99.90
48666;DHT22;34452;50.796;4.994;2023-03-31T15:06:06;12.80;99.90
48666;DHT22;34452;50.796;4.994;2023-03-31T15:08:34;12.70;99.90
48666;DHT22;34452;50.796;4.994;2023-03-31T15:11:04;12.60;99.90
48666;DHT22;34452;50.796;4.994;2023-03-31T15:13:34;12.60;99.90
48666;DHT22;34452;50.796;4.994;2023-03-31T15:19:17;12.40;99.90
48666;DHT22;34452;50.796;4.994;2023-03-31T15:21:44;12.30;99.90
48666;DHT22;34452;50.796;4.994;2023-03-31T15:24:12;12.30;99.90
48666;DHT22;34452;50.796;4.994;2023-03-31T15:26:43;12.10;99.90
48666;DHT22;34452;50.796;4.994;2023-03-31T15:29:26;12.00;99.90
48666;DHT22;34452;50.796;4.994;2023-03-31T15:31:56;12.00;99.90
48666;DHT22;34452;50.796;4.994;2023-03-31T15:34:27;12.10;99.90
48666;DHT22;34452;50.796;4.994;2023-03-31T15:36:55;12.00;99.90
48666;DHT22;34452;50.796;4.994;2023-03-31T15:39:23;12.10;99.90
48666;DHT22;34452;50.796;4.994;2023-03-31T15:41:50;12.10;99.90
48666;DHT22;34452;50.796;4.994;2023-03-31T15:47:16;12.00;99.90
48666;DHT22;34452;50.796;4.994;2023-03-31T15:50:07;12.00;99.90
48666;DHT22;34452;50.796;4.994;2023-03-31T15:52:44;11.90;99.90
48666;DHT22;34452;50.796;4.994;2023-03-31T15:57:57;11.80;99.90
48666;DHT22;34452;50.796;4.994;2023-03-31T16:00:40;11.70;99.90
48666;DHT22;34452;50.796;4.994;2023-03-31T16:03:23;11.70;99.90
48666;DHT22;34452;50.796;4.994;2023-03-31T16:06:08;11.80;99.90
48666;DHT22;34452;50.796;4.994;2023-03-31T16:11:08;11.80;99.90
48666;DHT22;34452;50.796;4.994;2023-03-31T16:13:39;11.80;99.90
48666;DHT22;34452;50.796;4.994;2023-03-31T16:16:10;11.80;99.90
48666;DHT22;34452;50.796;4.994;2023-03-31T16:18:41;11.80;99.90
48666;DHT22;34452;50.796;4.994;2023-03-31T16:21:08;11.80;99.90
48666;DHT22;34452;50.796;4.994;2023-03-31T16:23:36;11.80;99.90
48666;DHT22;34452;50.796;4.994;2023-03-31T16:26:03;11.80;99.90
48666;DHT22;34452;50.796;4.994;2023-03-31T16:28:31;11.80;99.90
48666;DHT22;34452;50.796;4.994;2023-03-31T16:30:58;11.80;99.90
48666;DHT22;34452;50.796;4.994;2023-03-31T16:33:28;11.80;99.90
48666;DHT22;34452;50.796;4.994;2023-03-31T16:35:55;11.80;99.90
48666;DHT22;34452;50.796;4.994;2023-03-31T16:38:24;11.80;99.90
48666;DHT22;34452;50.796;4.994;2023-03-31T16:40:53;11.80;99.90
48666;DHT22;34452;50.796;4.994;2023-03-31T16:43:30;11.90;99.90
48666;DHT22;34452;50.796;4.994;2023-03-31T16:46:00;11.90;99.90
48666;DHT22;34452;50.796;4.994;2023-03-31T16:48:28;11.90;99.90
48666;DHT22;34452;50.796;4.994;2023-03-31T16:50:57;12.00;99.90
48666;DHT22;34452;50.796;4.994;2023-03-31T16:53:26;12.00;99.90
48666;DHT22;34452;50.796;4.994;2023-03-31T16:55:52;12.00;99.90
48666;DHT22;34452;50.796;4.994;2023-03-31T16:58:18;11.90;99.90
48666;DHT22;34452;50.796;4.994;2023-03-31T17:00:44;11.90;99.90
48666;DHT22;34452;50.796;4.994;2023-03-31T17:03:11;11.80;99.90
48666;DHT22;34452;50.796;4.994;2023-03-31T17:05:39;11.80;99.90
48666;DHT22;34452;50.796;4.994;2023-03-31T17:08:06;11.70;99.90
48666;DHT22;34452;50.796;4.994;2023-03-31T17:10:33;11.70;99.90
48666;DHT22;34452;50.796;4.994;2023-03-31T17:12:59;11.70;99.90
48666;DHT22;34452;50.796;4.994;2023-03-31T17:15:25;11.70;99.90
48666;DHT22;34452;50.796;4.994;2023-03-31T17:17:53;11.60;99.90
48666;DHT22;34452;50.796;4.994;2023-03-31T17:20:19;11.60;99.90
48666;DHT22;34452;50.796;4.994;2023-03-31T17:22:45;11.60;99.90
48666;DHT22;34452;50.796;4.994;2023-03-31T17:25:11;11.60;99.90
48666;DHT22;34452;50.796;4.994;2023-03-31T17:27:37;11.50;99.90
48666;DHT22;34452;50.796;4.994;2023-03-31T17:30:05;11.50;99.90
48666;DHT22;34452;50.796;4.994;2023-03-31T17:32:31;11.40;99.90
48666;DHT22;34452;50.796;4.994;2023-03-31T17:34:57;11.40;99.90
48666;DHT22;34452;50.796;4.994;2023-03-31T17:37:23;11.40;99.90
48666;DHT22;34452;50.796;4.994;2023-03-31T17:39:49;11.40;99.90
48666;DHT22;34452;50.796;4.994;2023-03-31T17:42:15;11.30;99.90
48666;DHT22;34452;50.796;4.994;2023-03-31T17:44:41;11.30;99.90
48666;DHT22;34452;50.796;4.994;2023-03-31T17:47:07;11.30;99.90
48666;DHT22;34452;50.796;4.994;2023-03-31T17:49:33;11.20;99.90
48666;DHT22;34452;50.796;4.994;2023-03-31T17:51:59;11.10;99.90
48666;DHT22;34452;50.796;4.994;2023-03-31T17:54:25;11.10;99.90
48666;DHT22;34452;50.796;4.994;2023-03-31T17:56:51;11.00;99.90
48666;DHT22;34452;50.796;4.994;2023-03-31T17:59:18;11.00;99.90
48666;DHT22;34452;50.796;4.994;2023-03-31T18:01:44;10.90;99.90
48666;DHT22;34452;50.796;4.994;2023-03-31T18:04:12;10.90;99.90
48666;DHT22;34452;50.796;4.994;2023-03-31T18:06:38;10.90;99.90
48666;DHT22;34452;50.796;4.994;2023-03-31T18:09:04;10.90;99.90
48666;DHT22;34452;50.796;4.994;2023-03-31T18:11:30;10.90;99.90
48666;DHT22;34452;50.796;4.994;2023-03-31T18:13:57;10.90;99.90
48666;DHT22;34452;50.796;4.994;2023-03-31T18:16:26;10.90;99.90
48666;DHT22;34452;50.796;4.994;2023-03-31T18:18:52;10.90;99.90
48666;DHT22;34452;50.796;4.994;2023-03-31T18:21:18;10.90;99.90
48666;DHT22;34452;50.796;4.994;2023-03-31T18:23:44;10.90;99.90
48666;DHT22;34452;50.796;4.994;2023-03-31T18:26:12;10.80;99.90
48666;DHT22;34452;50.796;4.994;2023-03-31T18:28:39;10.80;99.90
48666;DHT22;34452;50.796;4.994;2023-03-31T18:31:05;10.70;99.90
48666;DHT22;34452;50.796;4.994;2023-03-31T18:33:32;10.70;99.90
48666;DHT22;34452;50.796;4.994;2023-03-31T18:35:57;10.70;99.90
48666;DHT22;34452;50.796;4.994;2023-03-31T18:38:24;10.70;99.90
48666;DHT22;34452;50.796;4.994;2023-03-31T18:40:50;10.70;99.90
48666;DHT22;34452;50.796;4.994;2023-03-31T18:43:18;10.70;99.90
48666;DHT22;34452;50.796;4.994;2023-03-31T18:45:47;10.70;99.90
48666;DHT22;34452;50.796;4.994;2023-03-31T18:48:14;10.70;99.90
48666;DHT22;34452;50.796;4.994;2023-03-31T18:50:43;10.70;99.90
48666;DHT22;34452;50.796;4.994;2023-03-31T18:53:09;10.60;99.90
48666;DHT22;34452;50.796;4.994;2023-03-31T18:55:34;10.60;99.90
48666;DHT22;34452;50.796;4.994;2023-03-31T18:58:00;10.60;99.90
48666;DHT22;34452;50.796;4.994;2023-03-31T19:00:26;10.60;99.90
48666;DHT22;34452;50.796;4.994;2023-03-31T19:02:52;10.60;99.90
48666;DHT22;34452;50.796;4.994;2023-03-31T19:05:18;10.60;99.90
48666;DHT22;34452;50.796;4.994;2023-03-31T19:07:44;10.60;99.90
48666;DHT22;34452;50.796;4.994;2023-03-31T19:10:10;10.60;99.90